sensor_id;sensor_type;location;lat;lon;timestamp;pressure;altitude;pressure_sealevel;temperature
22269;BMP280;11303;50.772;19.670;2023-06-14T00:01:54;98949.41;;;11.63
22269;BMP280;11303;50.772;19.670;2023-06-14T00:03:56;98943.06;;;11.60
22269;BMP280;11303;50.772;19.670;2023-06-14T00:05:58;98952.22;;;11.54
22269;BMP280;11303;50.772;19.670;2023-06-14T00:08:00;98954.72;;;11.51
22269;BMP280;11303;50.772;19.670;2023-06-14T00:10:03;98947.25;;;11.49
22269;BMP280;11303;50.772;19.670;2023-06-14T00:12:06;98950.31;;;11.51
22269;BMP280;11303;50.772;19.670;2023-06-14T00:14:08;98956.16;;;11.48
22269;BMP280;11303;50.772;19.670;2023-06-14T00:16:09;98947.59;;;11.47
22269;BMP280;11303;50.772;19.670;2023-06-14T00:18:11;98944.53;;;11.42
22269;BMP280;11303;50.772;19.670;2023-06-14T00:20:13;98943.66;;;11.38
22269;BMP280;11303;50.772;19.670;2023-06-14T00:22:15;98933.94;;;11.35
22269;BMP280;11303;50.772;19.670;2023-06-14T00:24:17;98940.13;;;11.30
22269;BMP280;11303;50.772;19.670;2023-06-14T00:26:19;98936.38;;;11.27
22269;BMP280;11303;50.772;19.670;2023-06-14T00:28:20;98933.03;;;11.27
22269;BMP280;11303;50.772;19.670;2023-06-14T00:30:23;98931.94;;;11.28
22269;BMP280;11303;50.772;19.670;2023-06-14T00:32:24;98935.69;;;11.31
22269;BMP280;11303;50.772;19.670;2023-06-14T00:34:27;98935.03;;;11.34
22269;BMP280;11303;50.772;19.670;2023-06-14T00:36:29;98937.28;;;11.35
22269;BMP280;11303;50.772;19.670;2023-06-14T00:38:30;98934.94;;;11.30
22269;BMP280;11303;50.772;19.670;2023-06-14T00:40:32;98934.44;;;11.24
22269;BMP280;11303;50.772;19.670;2023-06-14T00:42:33;98929.50;;;11.19
22269;BMP280;11303;50.772;19.670;2023-06-14T00:44:35;98932.53;;;11.21
22269;BMP280;11303;50.772;19.670;2023-06-14T00:46:37;98929.94;;;11.21
22269;BMP280;11303;50.772;19.670;2023-06-14T00:48:39;98938.06;;;11.20
22269;BMP280;11303;50.772;19.670;2023-06-14T00:50:41;98935.38;;;11.16
22269;BMP280;11303;50.772;19.670;2023-06-14T00:52:43;98924.22;;;11.16
22269;BMP280;11303;50.772;19.670;2023-06-14T00:54:45;98925.38;;;11.18
22269;BMP280;11303;50.772;19.670;2023-06-14T00:56:46;98920.44;;;11.13
22269;BMP280;11303;50.772;19.670;2023-06-14T00:58:50;98925.56;;;11.10
22269;BMP280;11303;50.772;19.670;2023-06-14T01:00:53;98919.53;;;11.05
22269;BMP280;11303;50.772;19.670;2023-06-14T01:02:55;98915.06;;;11.06
22269;BMP280;11303;50.772;19.670;2023-06-14T01:04:58;98923.53;;;11.03
22269;BMP280;11303;50.772;19.670;2023-06-14T01:07:18;98920.84;;;10.99
22269;BMP280;11303;50.772;19.670;2023-06-14T01:09:37;98922.28;;;10.97
22269;BMP280;11303;50.772;19.670;2023-06-14T01:12:24;98921.88;;;10.95
22269;BMP280;11303;50.772;19.670;2023-06-14T01:14:31;98920.63;;;10.88
22269;BMP280;11303;50.772;19.670;2023-06-14T01:16:34;98923.22;;;10.88
22269;BMP280;11303;50.772;19.670;2023-06-14T01:18:38;98916.81;;;10.86
22269;BMP280;11303;50.772;19.670;2023-06-14T01:20:39;98927.56;;;10.84
22269;BMP280;11303;50.772;19.670;2023-06-14T01:22:50;98919.75;;;10.84
22269;BMP280;11303;50.772;19.670;2023-06-14T01:24:52;98922.34;;;10.84
22269;BMP280;11303;50.772;19.670;2023-06-14T01:26:57;98921.28;;;10.85
22269;BMP280;11303;50.772;19.670;2023-06-14T01:28:59;98917.47;;;10.83
22269;BMP280;11303;50.772;19.670;2023-06-14T01:31:02;98911.16;;;10.80
22269;BMP280;11303;50.772;19.670;2023-06-14T01:33:07;98906.59;;;10.77
22269;BMP280;11303;50.772;19.670;2023-06-14T01:35:08;98903.88;;;10.74
22269;BMP280;11303;50.772;19.670;2023-06-14T01:37:11;98902.75;;;10.71
22269;BMP280;11303;50.772;19.670;2023-06-14T01:39:15;98906.00;;;10.68
22269;BMP280;11303;50.772;19.670;2023-06-14T01:41:18;98907.41;;;10.65
22269;BMP280;11303;50.772;19.670;2023-06-14T01:43:22;98912.28;;;10.67
22269;BMP280;11303;50.772;19.670;2023-06-14T01:45:25;98907.06;;;10.67
22269;BMP280;11303;50.772;19.670;2023-06-14T01:47:27;98909.69;;;10.67
22269;BMP280;11303;50.772;19.670;2023-06-14T01:49:28;98911.84;;;10.65
22269;BMP280;11303;50.772;19.670;2023-06-14T01:51:30;98912.53;;;10.62
22269;BMP280;11303;50.772;19.670;2023-06-14T01:53:32;98911.00;;;10.61
22269;BMP280;11303;50.772;19.670;2023-06-14T01:55:34;98909.16;;;10.61
22269;BMP280;11303;50.772;19.670;2023-06-14T01:57:38;98912.09;;;10.60
22269;BMP280;11303;50.772;19.670;2023-06-14T01:59:40;98899.34;;;10.55
22269;BMP280;11303;50.772;19.670;2023-06-14T02:01:41;98906.41;;;10.54
22269;BMP280;11303;50.772;19.670;2023-06-14T02:03:43;98910.09;;;10.53
22269;BMP280;11303;50.772;19.670;2023-06-14T02:05:46;98905.31;;;10.55
22269;BMP280;11303;50.772;19.670;2023-06-14T02:07:48;98906.00;;;10.52
22269;BMP280;11303;50.772;19.670;2023-06-14T02:09:49;98919.72;;;10.53
22269;BMP280;11303;50.772;19.670;2023-06-14T02:11:51;98914.09;;;10.51
22269;BMP280;11303;50.772;19.670;2023-06-14T02:13:52;98912.19;;;10.47
22269;BMP280;11303;50.772;19.670;2023-06-14T02:15:54;98908.06;;;10.46
22269;BMP280;11303;50.772;19.670;2023-06-14T02:17:56;98899.53;;;10.46
22269;BMP280;11303;50.772;19.670;2023-06-14T02:19:58;98901.78;;;10.47
22269;BMP280;11303;50.772;19.670;2023-06-14T02:21:59;98901.03;;;10.47
22269;BMP280;11303;50.772;19.670;2023-06-14T02:24:01;98902.50;;;10.48
22269;BMP280;11303;50.772;19.670;2023-06-14T02:26:03;98901.78;;;10.47
22269;BMP280;11303;50.772;19.670;2023-06-14T02:28:05;98902.88;;;10.46
22269;BMP280;11303;50.772;19.670;2023-06-14T02:30:07;98912.84;;;10.44
22269;BMP280;11303;50.772;19.670;2023-06-14T02:32:09;98909.78;;;10.42
22269;BMP280;11303;50.772;19.670;2023-06-14T02:34:11;98905.69;;;10.41
22269;BMP280;11303;50.772;19.670;2023-06-14T02:36:12;98910.47;;;10.39
22269;BMP280;11303;50.772;19.670;2023-06-14T02:38:14;98919.38;;;10.38
22269;BMP280;11303;50.772;19.670;2023-06-14T02:40:16;98920.44;;;10.37
22269;BMP280;11303;50.772;19.670;2023-06-14T02:42:18;98911.78;;;10.33
22269;BMP280;11303;50.772;19.670;2023-06-14T02:44:24;98918.50;;;10.34
22269;BMP280;11303;50.772;19.670;2023-06-14T02:46:26;98913.31;;;10.34
22269;BMP280;11303;50.772;19.670;2023-06-14T02:48:28;98917.31;;;10.32
22269;BMP280;11303;50.772;19.670;2023-06-14T02:50:30;98917.25;;;10.28
22269;BMP280;11303;50.772;19.670;2023-06-14T02:52:31;98917.13;;;10.24
22269;BMP280;11303;50.772;19.670;2023-06-14T02:54:34;98911.94;;;10.24
22269;BMP280;11303;50.772;19.670;2023-06-14T02:56:36;98916.38;;;10.24
22269;BMP280;11303;50.772;19.670;2023-06-14T02:58:38;98909.78;;;10.26
22269;BMP280;11303;50.772;19.670;2023-06-14T03:00:40;98916.72;;;10.22
22269;BMP280;11303;50.772;19.670;2023-06-14T03:02:42;98913.38;;;10.22
22269;BMP280;11303;50.772;19.670;2023-06-14T03:04:44;98911.00;;;10.17
22269;BMP280;11303;50.772;19.670;2023-06-14T03:06:48;98916.50;;;10.15
22269;BMP280;11303;50.772;19.670;2023-06-14T03:08:51;98923.66;;;10.18
22269;BMP280;11303;50.772;19.670;2023-06-14T03:10:56;98916.94;;;10.17
22269;BMP280;11303;50.772;19.670;2023-06-14T03:12:57;98919.97;;;10.19
22269;BMP280;11303;50.772;19.670;2023-06-14T03:14:59;98920.41;;;10.21
22269;BMP280;11303;50.772;19.670;2023-06-14T03:17:05;98927.84;;;10.23
22269;BMP280;11303;50.772;19.670;2023-06-14T03:19:10;98922.56;;;10.19
22269;BMP280;11303;50.772;19.670;2023-06-14T03:21:12;98917.19;;;10.12
22269;BMP280;11303;50.772;19.670;2023-06-14T03:23:13;98918.69;;;10.13
22269;BMP280;11303;50.772;19.670;2023-06-14T03:25:15;98929.09;;;10.13
22269;BMP280;11303;50.772;19.670;2023-06-14T03:27:17;98924.22;;;10.12
22269;BMP280;11303;50.772;19.670;2023-06-14T03:29:18;98932.31;;;10.10
22269;BMP280;11303;50.772;19.670;2023-06-14T03:31:20;98928.22;;;10.09
22269;BMP280;11303;50.772;19.670;2023-06-14T03:33:22;98933.53;;;10.13
22269;BMP280;11303;50.772;19.670;2023-06-14T03:35:24;98916.50;;;10.15
22269;BMP280;11303;50.772;19.670;2023-06-14T03:37:25;98922.13;;;10.17
22269;BMP280;11303;50.772;19.670;2023-06-14T03:39:27;98927.44;;;10.21
22269;BMP280;11303;50.772;19.670;2023-06-14T03:41:29;98921.22;;;10.25
22269;BMP280;11303;50.772;19.670;2023-06-14T03:43:30;98932.72;;;10.24
22269;BMP280;11303;50.772;19.670;2023-06-14T03:45:32;98927.22;;;10.26
22269;BMP280;11303;50.772;19.670;2023-06-14T03:47:34;98935.84;;;10.30
22269;BMP280;11303;50.772;19.670;2023-06-14T03:49:36;98933.91;;;10.27
22269;BMP280;11303;50.772;19.670;2023-06-14T03:51:38;98931.75;;;10.29
22269;BMP280;11303;50.772;19.670;2023-06-14T03:53:41;98934.78;;;10.31
22269;BMP280;11303;50.772;19.670;2023-06-14T03:56:03;98930.97;;;10.28
22269;BMP280;11303;50.772;19.670;2023-06-14T03:58:04;98930.22;;;10.28
22269;BMP280;11303;50.772;19.670;2023-06-14T04:00:07;98927.84;;;10.23
22269;BMP280;11303;50.772;19.670;2023-06-14T04:02:09;98928.97;;;10.22
22269;BMP280;11303;50.772;19.670;2023-06-14T04:04:12;98927.53;;;10.24
22269;BMP280;11303;50.772;19.670;2023-06-14T04:06:13;98930.13;;;10.24
22269;BMP280;11303;50.772;19.670;2023-06-14T04:08:21;98933.16;;;10.26
22269;BMP280;11303;50.772;19.670;2023-06-14T04:10:23;98935.84;;;10.30
22269;BMP280;11303;50.772;19.670;2023-06-14T04:12:25;98932.19;;;10.31
22269;BMP280;11303;50.772;19.670;2023-06-14T04:14:27;98940.69;;;10.32
22269;BMP280;11303;50.772;19.670;2023-06-14T04:16:28;98935.16;;;10.33
22269;BMP280;11303;50.772;19.670;2023-06-14T04:18:30;98938.53;;;10.34
22269;BMP280;11303;50.772;19.670;2023-06-14T04:20:31;98936.69;;;10.34
22269;BMP280;11303;50.772;19.670;2023-06-14T04:22:34;98934.69;;;10.27
22269;BMP280;11303;50.772;19.670;2023-06-14T04:24:36;98933.47;;;10.25
22269;BMP280;11303;50.772;19.670;2023-06-14T04:26:39;98940.94;;;10.26
22269;BMP280;11303;50.772;19.670;2023-06-14T04:28:41;98939.53;;;10.29
22269;BMP280;11303;50.772;19.670;2023-06-14T04:30:43;98944.06;;;10.32
22269;BMP280;11303;50.772;19.670;2023-06-14T04:32:45;98937.13;;;10.36
22269;BMP280;11303;50.772;19.670;2023-06-14T04:34:47;98937.13;;;10.36
22269;BMP280;11303;50.772;19.670;2023-06-14T04:36:50;98943.41;;;10.35
22269;BMP280;11303;50.772;19.670;2023-06-14T04:38:54;98938.63;;;10.37
22269;BMP280;11303;50.772;19.670;2023-06-14T04:40:56;98932.44;;;10.42
22269;BMP280;11303;50.772;19.670;2023-06-14T04:42:59;98942.41;;;10.40
22269;BMP280;11303;50.772;19.670;2023-06-14T04:45:00;98939.81;;;10.40
22269;BMP280;11303;50.772;19.670;2023-06-14T04:47:03;98947.72;;;10.43
22269;BMP280;11303;50.772;19.670;2023-06-14T04:49:05;98941.84;;;10.46
22269;BMP280;11303;50.772;19.670;2023-06-14T04:51:10;98942.25;;;10.48
22269;BMP280;11303;50.772;19.670;2023-06-14T04:53:12;98951.25;;;10.51
22269;BMP280;11303;50.772;19.670;2023-06-14T04:55:14;98950.03;;;10.48
22269;BMP280;11303;50.772;19.670;2023-06-14T04:57:16;98944.53;;;10.50
22269;BMP280;11303;50.772;19.670;2023-06-14T04:59:19;98945.41;;;10.54
22269;BMP280;11303;50.772;19.670;2023-06-14T05:01:20;98952.78;;;10.52
22269;BMP280;11303;50.772;19.670;2023-06-14T05:03:22;98946.47;;;10.53
22269;BMP280;11303;50.772;19.670;2023-06-14T05:05:25;98942.78;;;10.54
22269;BMP280;11303;50.772;19.670;2023-06-14T05:07:27;98949.34;;;10.64
22269;BMP280;11303;50.772;19.670;2023-06-14T05:09:28;98954.63;;;10.67
22269;BMP280;11303;50.772;19.670;2023-06-14T05:11:30;98948.09;;;10.74
22269;BMP280;11303;50.772;19.670;2023-06-14T05:13:31;98957.09;;;10.76
22269;BMP280;11303;50.772;19.670;2023-06-14T05:15:34;98958.09;;;10.87
22269;BMP280;11303;50.772;19.670;2023-06-14T05:17:35;98948.81;;;10.86
22269;BMP280;11303;50.772;19.670;2023-06-14T05:19:37;98952.66;;;10.93
22269;BMP280;11303;50.772;19.670;2023-06-14T05:21:39;98951.31;;;10.99
22269;BMP280;11303;50.772;19.670;2023-06-14T05:23:44;98954.00;;;11.02
22269;BMP280;11303;50.772;19.670;2023-06-14T05:25:46;98953.91;;;10.99
22269;BMP280;11303;50.772;19.670;2023-06-14T05:27:48;98958.63;;;10.93
22269;BMP280;11303;50.772;19.670;2023-06-14T05:29:50;98951.81;;;10.88
22269;BMP280;11303;50.772;19.670;2023-06-14T05:31:52;98955.91;;;10.89
22269;BMP280;11303;50.772;19.670;2023-06-14T05:33:53;98952.22;;;10.91
22269;BMP280;11303;50.772;19.670;2023-06-14T05:35:55;98951.41;;;10.86
22269;BMP280;11303;50.772;19.670;2023-06-14T05:37:57;98958.69;;;10.81
22269;BMP280;11303;50.772;19.670;2023-06-14T05:39:58;98963.16;;;10.80
22269;BMP280;11303;50.772;19.670;2023-06-14T05:42:00;98962.38;;;10.80
22269;BMP280;11303;50.772;19.670;2023-06-14T05:44:01;98970.94;;;10.80
22269;BMP280;11303;50.772;19.670;2023-06-14T05:46:03;98963.53;;;10.82
22269;BMP280;11303;50.772;19.670;2023-06-14T05:48:05;98972.09;;;10.83
22269;BMP280;11303;50.772;19.670;2023-06-14T05:50:07;98953.88;;;10.83
22269;BMP280;11303;50.772;19.670;2023-06-14T05:52:09;98963.97;;;10.84
22269;BMP280;11303;50.772;19.670;2023-06-14T05:54:11;98965.47;;;10.85
22269;BMP280;11303;50.772;19.670;2023-06-14T05:56:14;98958.53;;;10.89
22269;BMP280;11303;50.772;19.670;2023-06-14T05:58:15;98963.22;;;11.00
22269;BMP280;11303;50.772;19.670;2023-06-14T06:00:18;98960.22;;;10.98
22269;BMP280;11303;50.772;19.670;2023-06-14T06:02:21;98959.88;;;10.99
22269;BMP280;11303;50.772;19.670;2023-06-14T06:04:23;98964.16;;;11.07
22269;BMP280;11303;50.772;19.670;2023-06-14T06:06:25;98969.53;;;11.15
22269;BMP280;11303;50.772;19.670;2023-06-14T06:08:28;98972.50;;;11.13
22269;BMP280;11303;50.772;19.670;2023-06-14T06:10:29;98971.38;;;11.14
22269;BMP280;11303;50.772;19.670;2023-06-14T06:12:31;98973.16;;;11.10
22269;BMP280;11303;50.772;19.670;2023-06-14T06:14:33;98972.88;;;11.15
22269;BMP280;11303;50.772;19.670;2023-06-14T06:16:35;98970.72;;;11.17
22269;BMP280;11303;50.772;19.670;2023-06-14T06:18:37;98967.59;;;11.27
22269;BMP280;11303;50.772;19.670;2023-06-14T06:20:39;98973.41;;;11.37
22269;BMP280;11303;50.772;19.670;2023-06-14T06:22:40;98976.25;;;11.32
22269;BMP280;11303;50.772;19.670;2023-06-14T06:24:42;98971.47;;;11.34
22269;BMP280;11303;50.772;19.670;2023-06-14T06:26:46;98977.09;;;11.36
22269;BMP280;11303;50.772;19.670;2023-06-14T06:28:48;98967.44;;;11.36
22269;BMP280;11303;50.772;19.670;2023-06-14T06:30:49;98972.22;;;11.34
22269;BMP280;11303;50.772;19.670;2023-06-14T06:32:52;98978.78;;;11.44
22269;BMP280;11303;50.772;19.670;2023-06-14T06:34:54;98979.16;;;11.46
22269;BMP280;11303;50.772;19.670;2023-06-14T06:36:56;98983.63;;;11.45
22269;BMP280;11303;50.772;19.670;2023-06-14T06:38:58;98976.00;;;11.37
22269;BMP280;11303;50.772;19.670;2023-06-14T06:40:59;98977.50;;;11.38
22269;BMP280;11303;50.772;19.670;2023-06-14T06:43:02;98977.16;;;11.39
22269;BMP280;11303;50.772;19.670;2023-06-14T06:45:04;98988.25;;;11.36
22269;BMP280;11303;50.772;19.670;2023-06-14T06:47:06;98989.44;;;11.39
22269;BMP280;11303;50.772;19.670;2023-06-14T06:49:09;98989.34;;;11.51
22269;BMP280;11303;50.772;19.670;2023-06-14T06:51:10;98985.41;;;11.57
22269;BMP280;11303;50.772;19.670;2023-06-14T06:53:14;98998.13;;;11.62
22269;BMP280;11303;50.772;19.670;2023-06-14T06:55:24;98989.31;;;11.67
22269;BMP280;11303;50.772;19.670;2023-06-14T06:57:25;98991.22;;;11.70
22269;BMP280;11303;50.772;19.670;2023-06-14T06:59:27;98992.88;;;11.78
22269;BMP280;11303;50.772;19.670;2023-06-14T07:01:28;98985.22;;;11.85
22269;BMP280;11303;50.772;19.670;2023-06-14T07:03:30;98992.84;;;11.94
22269;BMP280;11303;50.772;19.670;2023-06-14T07:05:32;98997.59;;;11.89
22269;BMP280;11303;50.772;19.670;2023-06-14T07:07:34;98996.13;;;11.91
22269;BMP280;11303;50.772;19.670;2023-06-14T07:09:36;99008.06;;;11.92
22269;BMP280;11303;50.772;19.670;2023-06-14T07:11:43;99001.56;;;11.82
22269;BMP280;11303;50.772;19.670;2023-06-14T07:13:44;98999.00;;;11.86
22269;BMP280;11303;50.772;19.670;2023-06-14T07:15:46;99001.91;;;12.00
22269;BMP280;11303;50.772;19.670;2023-06-14T07:17:48;99005.69;;;12.03
22269;BMP280;11303;50.772;19.670;2023-06-14T07:19:50;98999.13;;;12.09
22269;BMP280;11303;50.772;19.670;2023-06-14T07:21:52;99003.97;;;12.11
22269;BMP280;11303;50.772;19.670;2023-06-14T07:23:54;99001.03;;;12.12
22269;BMP280;11303;50.772;19.670;2023-06-14T07:25:56;99007.28;;;12.27
22269;BMP280;11303;50.772;19.670;2023-06-14T07:27:58;99005.50;;;12.31
22269;BMP280;11303;50.772;19.670;2023-06-14T07:30:00;99014.97;;;12.39
22269;BMP280;11303;50.772;19.670;2023-06-14T07:32:02;99016.81;;;12.39
22269;BMP280;11303;50.772;19.670;2023-06-14T07:34:03;99022.31;;;12.34
22269;BMP280;11303;50.772;19.670;2023-06-14T07:36:05;99021.13;;;12.31
22269;BMP280;11303;50.772;19.670;2023-06-14T07:38:07;99026.91;;;12.40
22269;BMP280;11303;50.772;19.670;2023-06-14T07:40:09;99030.03;;;12.50
22269;BMP280;11303;50.772;19.670;2023-06-14T07:42:12;99035.13;;;12.42
22269;BMP280;11303;50.772;19.670;2023-06-14T07:44:14;99033.22;;;12.39
22269;BMP280;11303;50.772;19.670;2023-06-14T07:46:15;99038.97;;;12.49
22269;BMP280;11303;50.772;19.670;2023-06-14T07:48:18;99047.00;;;12.59
22269;BMP280;11303;50.772;19.670;2023-06-14T07:50:20;99045.16;;;12.60
22269;BMP280;11303;50.772;19.670;2023-06-14T07:52:21;99047.75;;;12.60
22269;BMP280;11303;50.772;19.670;2023-06-14T07:54:23;99046.38;;;12.46
22269;BMP280;11303;50.772;19.670;2023-06-14T07:56:27;99045.69;;;12.30
22269;BMP280;11303;50.772;19.670;2023-06-14T07:58:29;99045.97;;;12.25
22269;BMP280;11303;50.772;19.670;2023-06-14T08:00:30;99044.47;;;12.24
22269;BMP280;11303;50.772;19.670;2023-06-14T08:02:32;99052.63;;;12.22
22269;BMP280;11303;50.772;19.670;2023-06-14T08:04:34;99046.97;;;12.20
22269;BMP280;11303;50.772;19.670;2023-06-14T08:06:36;99044.31;;;12.17
22269;BMP280;11303;50.772;19.670;2023-06-14T08:08:37;99046.91;;;12.17
22269;BMP280;11303;50.772;19.670;2023-06-14T08:10:39;99048.81;;;12.20
22269;BMP280;11303;50.772;19.670;2023-06-14T08:12:41;99045.25;;;12.28
22269;BMP280;11303;50.772;19.670;2023-06-14T08:14:42;99047.47;;;12.26
22269;BMP280;11303;50.772;19.670;2023-06-14T08:16:44;99043.28;;;12.21
22269;BMP280;11303;50.772;19.670;2023-06-14T08:18:46;99045.50;;;12.19
22269;BMP280;11303;50.772;19.670;2023-06-14T08:20:47;99045.41;;;12.16
22269;BMP280;11303;50.772;19.670;2023-06-14T08:22:49;99041.09;;;12.23
22269;BMP280;11303;50.772;19.670;2023-06-14T08:24:51;99039.03;;;12.13
22269;BMP280;11303;50.772;19.670;2023-06-14T08:26:54;99048.78;;;12.16
22269;BMP280;11303;50.772;19.670;2023-06-14T08:28:56;99041.00;;;12.20
22269;BMP280;11303;50.772;19.670;2023-06-14T08:30:57;99042.44;;;12.17
22269;BMP280;11303;50.772;19.670;2023-06-14T08:32:59;99050.00;;;12.22
22269;BMP280;11303;50.772;19.670;2023-06-14T08:35:17;99041.16;;;12.27
22269;BMP280;11303;50.772;19.670;2023-06-14T08:37:19;99047.69;;;12.37
22269;BMP280;11303;50.772;19.670;2023-06-14T08:39:21;99048.44;;;12.37
22269;BMP280;11303;50.772;19.670;2023-06-14T08:41:23;99042.88;;;12.39
22269;BMP280;11303;50.772;19.670;2023-06-14T08:43:28;99043.84;;;12.31
22269;BMP280;11303;50.772;19.670;2023-06-14T08:45:30;99043.44;;;12.48
22269;BMP280;11303;50.772;19.670;2023-06-14T08:47:32;99043.78;;;12.66
22269;BMP280;11303;50.772;19.670;2023-06-14T08:49:47;99050.16;;;12.69
22269;BMP280;11303;50.772;19.670;2023-06-14T08:51:57;99044.09;;;12.64
22269;BMP280;11303;50.772;19.670;2023-06-14T08:54:00;99041.09;;;12.62
22269;BMP280;11303;50.772;19.670;2023-06-14T08:56:03;99046.22;;;12.59
22269;BMP280;11303;50.772;19.670;2023-06-14T08:58:06;99049.47;;;12.52
22269;BMP280;11303;50.772;19.670;2023-06-14T09:00:12;99054.94;;;12.66
22269;BMP280;11303;50.772;19.670;2023-06-14T09:02:15;99055.91;;;12.78
22269;BMP280;11303;50.772;19.670;2023-06-14T09:04:20;99050.28;;;12.76
22269;BMP280;11303;50.772;19.670;2023-06-14T09:06:23;99051.94;;;12.64
22269;BMP280;11303;50.772;19.670;2023-06-14T09:08:29;99060.59;;;12.69
22269;BMP280;11303;50.772;19.670;2023-06-14T09:10:32;99044.19;;;12.68
22269;BMP280;11303;50.772;19.670;2023-06-14T09:12:39;99051.13;;;12.83
22269;BMP280;11303;50.772;19.670;2023-06-14T09:14:41;99056.56;;;12.94
22269;BMP280;11303;50.772;19.670;2023-06-14T09:16:44;99066.25;;;12.94
22269;BMP280;11303;50.772;19.670;2023-06-14T09:18:46;99060.94;;;13.10
22269;BMP280;11303;50.772;19.670;2023-06-14T09:20:51;99068.06;;;13.36
22269;BMP280;11303;50.772;19.670;2023-06-14T09:22:53;99063.53;;;13.59
22269;BMP280;11303;50.772;19.670;2023-06-14T09:24:55;99063.81;;;13.77
22269;BMP280;11303;50.772;19.670;2023-06-14T09:26:56;99060.94;;;14.16
22269;BMP280;11303;50.772;19.670;2023-06-14T09:28:59;99053.69;;;14.36
22269;BMP280;11303;50.772;19.670;2023-06-14T09:31:02;99064.22;;;14.77
22269;BMP280;11303;50.772;19.670;2023-06-14T09:33:03;99067.91;;;14.73
22269;BMP280;11303;50.772;19.670;2023-06-14T09:35:06;99064.31;;;14.88
22269;BMP280;11303;50.772;19.670;2023-06-14T09:37:08;99055.56;;;15.14
22269;BMP280;11303;50.772;19.670;2023-06-14T09:39:10;99061.50;;;15.11
22269;BMP280;11303;50.772;19.670;2023-06-14T09:41:12;99058.44;;;15.50
22269;BMP280;11303;50.772;19.670;2023-06-14T09:43:13;99056.72;;;15.83
22269;BMP280;11303;50.772;19.670;2023-06-14T09:45:15;99059.00;;;15.92
22269;BMP280;11303;50.772;19.670;2023-06-14T09:47:24;99050.53;;;16.27
22269;BMP280;11303;50.772;19.670;2023-06-14T09:49:26;99051.69;;;16.62
22269;BMP280;11303;50.772;19.670;2023-06-14T09:51:32;99045.72;;;17.01
22269;BMP280;11303;50.772;19.670;2023-06-14T09:53:35;99044.19;;;17.10
22269;BMP280;11303;50.772;19.670;2023-06-14T09:55:40;99044.19;;;16.57
22269;BMP280;11303;50.772;19.670;2023-06-14T09:57:43;99048.31;;;16.40
22269;BMP280;11303;50.772;19.670;2023-06-14T09:59:47;99048.31;;;16.65
22269;BMP280;11303;50.772;19.670;2023-06-14T10:01:51;99047.53;;;16.46
22269;BMP280;11303;50.772;19.670;2023-06-14T10:04:03;99048.66;;;16.42
22269;BMP280;11303;50.772;19.670;2023-06-14T10:06:11;99047.19;;;16.48
22269;BMP280;11303;50.772;19.670;2023-06-14T10:08:15;99040.44;;;16.40
22269;BMP280;11303;50.772;19.670;2023-06-14T10:10:17;99044.94;;;16.54
22269;BMP280;11303;50.772;19.670;2023-06-14T10:12:20;99035.94;;;16.47
22269;BMP280;11303;50.772;19.670;2023-06-14T10:14:23;99032.53;;;16.36
22269;BMP280;11303;50.772;19.670;2023-06-14T10:16:39;99041.75;;;15.87
22269;BMP280;11303;50.772;19.670;2023-06-14T10:20:53;99038.19;;;15.43
22269;BMP280;11303;50.772;19.670;2023-06-14T10:23:05;99050.31;;;15.80
22269;BMP280;11303;50.772;19.670;2023-06-14T10:25:12;99043.34;;;16.20
22269;BMP280;11303;50.772;19.670;2023-06-14T10:27:14;99041.56;;;16.42
22269;BMP280;11303;50.772;19.670;2023-06-14T10:29:18;99041.94;;;16.44
22269;BMP280;11303;50.772;19.670;2023-06-14T10:31:20;99034.44;;;16.54
22269;BMP280;11303;50.772;19.670;2023-06-14T10:33:22;99040.47;;;16.68
22269;BMP280;11303;50.772;19.670;2023-06-14T10:35:23;99036.28;;;16.35
22269;BMP280;11303;50.772;19.670;2023-06-14T10:37:25;99032.53;;;16.33
22269;BMP280;11303;50.772;19.670;2023-06-14T10:39:27;99047.09;;;16.12
22269;BMP280;11303;50.772;19.670;2023-06-14T10:41:29;99038.81;;;16.03
22269;BMP280;11303;50.772;19.670;2023-06-14T10:43:31;99043.66;;;15.94
22269;BMP280;11303;50.772;19.670;2023-06-14T10:45:33;99047.59;;;15.55
22269;BMP280;11303;50.772;19.670;2023-06-14T10:47:35;99048.53;;;15.25
22269;BMP280;11303;50.772;19.670;2023-06-14T10:49:45;99052.81;;;15.00
22269;BMP280;11303;50.772;19.670;2023-06-14T10:51:51;99044.81;;;14.82
22269;BMP280;11303;50.772;19.670;2023-06-14T10:53:56;99047.72;;;14.73
22269;BMP280;11303;50.772;19.670;2023-06-14T10:56:06;99043.84;;;14.56
22269;BMP280;11303;50.772;19.670;2023-06-14T10:58:08;99054.34;;;14.63
22269;BMP280;11303;50.772;19.670;2023-06-14T11:00:11;99049.53;;;14.65
22269;BMP280;11303;50.772;19.670;2023-06-14T11:04:47;99043.91;;;14.63
22269;BMP280;11303;50.772;19.670;2023-06-14T11:06:50;99050.00;;;14.78
22269;BMP280;11303;50.772;19.670;2023-06-14T11:11:42;99038.47;;;15.31
22269;BMP280;11303;50.772;19.670;2023-06-14T11:13:45;99043.44;;;15.51
22269;BMP280;11303;50.772;19.670;2023-06-14T11:15:47;99046.22;;;15.76
22269;BMP280;11303;50.772;19.670;2023-06-14T11:17:52;99044.41;;;15.94
22269;BMP280;11303;50.772;19.670;2023-06-14T11:20:10;99035.09;;;16.11
22269;BMP280;11303;50.772;19.670;2023-06-14T11:22:21;99033.56;;;15.99
22269;BMP280;11303;50.772;19.670;2023-06-14T11:24:23;99028.66;;;15.90
22269;BMP280;11303;50.772;19.670;2023-06-14T11:26:29;99035.00;;;15.82
22269;BMP280;11303;50.772;19.670;2023-06-14T11:28:38;99029.03;;;15.93
22269;BMP280;11303;50.772;19.670;2023-06-14T11:30:41;99030.25;;;16.24
22269;BMP280;11303;50.772;19.670;2023-06-14T11:32:46;99021.34;;;16.50
22269;BMP280;11303;50.772;19.670;2023-06-14T11:34:48;99024.72;;;16.65
22269;BMP280;11303;50.772;19.670;2023-06-14T11:36:49;99014.22;;;16.68
22269;BMP280;11303;50.772;19.670;2023-06-14T11:38:57;99030.69;;;16.94
22269;BMP280;11303;50.772;19.670;2023-06-14T11:40:59;99023.16;;;17.28
22269;BMP280;11303;50.772;19.670;2023-06-14T11:43:02;99019.72;;;17.42
22269;BMP280;11303;50.772;19.670;2023-06-14T11:45:07;99028.06;;;17.05
22269;BMP280;11303;50.772;19.670;2023-06-14T11:47:10;99020.19;;;16.94